Time;durP1;ratioP1;P1;durP2;ratioP2;P2;SDS_P1;SDS_P2;PMS_P1;PMS_P2;Temp;Humidity;BMP_temperature;BMP_pressure;BME280_temperature;BME280_humidity;BME280_pressure;Samples;Min_cycle;Max_cycle;Signal;HPM_P1;HPM_P2
2023/05/30 00:01:47;;;;;;;4.03;3.83;;;20.40;34.70;;;;;;20695;6847;117888;-77
2023/05/30 00:04:12;;;;;;;4.63;3.30;;;20.20;35.00;;;;;;20709;6847;117704;-77
2023/05/30 00:06:38;;;;;;;4.17;3.87;;;19.90;35.40;;;;;;20709;6847;117202;-77
2023/05/30 00:09:04;;;;;;;4.90;4.40;;;19.70;35.90;;;;;;20488;6847;305370;-77
2023/05/30 00:11:29;;;;;;;4.30;3.90;;;19.90;35.80;;;;;;20701;6847;117440;-77
2023/05/30 00:13:55;;;;;;;3.92;3.62;;;19.90;35.60;;;;;;20690;6847;122144;-77
2023/05/30 00:16:22;;;;;;;4.20;3.80;;;19.80;35.90;;;;;;20705;6847;117398;-77
2023/05/30 00:18:46;;;;;;;4.30;3.97;;;19.60;36.00;;;;;;20707;6847;116278;-77
2023/05/30 00:21:11;;;;;;;4.30;4.00;;;19.40;36.20;;;;;;20490;6847;313792;-77
2023/05/30 00:23:40;;;;;;;4.77;4.37;;;19.60;36.20;;;;;;20473;6847;299877;-77
2023/05/30 00:26:08;;;;;;;4.33;4.03;;;20.00;35.90;;;;;;20706;6847;117879;-77
2023/05/30 00:28:31;;;;;;;4.60;4.20;;;19.90;35.80;;;;;;20486;6847;307667;-77
2023/05/30 00:30:57;;;;;;;4.87;4.47;;;20.30;35.80;;;;;;20499;6847;308237;-77
2023/05/30 00:33:24;;;;;;;5.73;4.00;;;20.20;35.70;;;;;;20711;6847;117776;-77
2023/05/30 00:35:50;;;;;;;4.70;4.23;;;20.10;35.80;;;;;;20694;6847;117701;-77
2023/05/30 00:38:16;;;;;;;4.00;3.70;;;19.50;36.60;;;;;;20699;6847;118289;-77
2023/05/30 00:40:41;;;;;;;6.03;3.83;;;19.50;36.60;;;;;;20712;6847;117146;-77
2023/05/30 00:43:07;;;;;;;5.18;4.40;;;19.30;36.90;;;;;;20499;6847;278713;-77
2023/05/30 00:45:32;;;;;;;4.25;3.95;;;19.40;36.80;;;;;;20690;6847;117546;-78
2023/05/30 00:47:58;;;;;;;4.70;4.00;;;19.50;36.80;;;;;;20706;6847;117285;-77
2023/05/30 00:50:26;;;;;;;4.40;4.10;;;19.10;37.30;;;;;;20702;6847;118382;-77
2023/05/30 00:52:50;;;;;;;5.57;4.40;;;19.00;37.20;;;;;;20491;6847;298995;-80
2023/05/30 00:55:15;;;;;;;4.97;4.20;;;19.30;37.30;;;;;;20704;6847;117223;-77
2023/05/30 00:57:42;;;;;;;4.70;4.20;;;19.30;37.20;;;;;;20471;6847;309845;-77
2023/05/30 01:00:07;;;;;;;4.55;4.15;;;19.40;36.80;;;;;;20491;6847;293960;-77
2023/05/30 01:02:36;;;;;;;5.47;4.40;;;19.80;36.60;;;;;;20486;6846;311986;-77
2023/05/30 01:05:01;;;;;;;6.83;4.57;;;19.90;36.00;;;;;;20501;6847;307276;-77
2023/05/30 01:07:29;;;;;;;5.05;4.65;;;20.10;35.80;;;;;;20500;6847;314928;-77
2023/05/30 01:09:54;;;;;;;4.83;4.47;;;20.20;35.60;;;;;;20459;6847;286543;-77
2023/05/30 01:12:33;;;;;;;4.70;4.30;;;20.30;35.60;;;;;;20490;6847;307791;-77
2023/05/30 01:15:08;;;;;;;4.60;4.10;;;20.40;35.40;;;;;;20492;6847;277893;-77
2023/05/30 01:17:33;;;;;;;3.97;3.57;;;20.40;35.40;;;;;;20677;6847;117890;-78
2023/05/30 01:20:07;;;;;;;6.07;3.87;;;20.00;35.80;;;;;;20668;6847;117336;-77
2023/05/30 01:23:05;;;;;;;4.60;4.20;;;19.70;36.30;;;;;;20491;6847;312355;-77
2023/05/30 01:25:40;;;;;;;4.85;4.40;;;19.70;36.50;;;;;;20492;6847;307330;-77
2023/05/30 01:28:12;;;;;;;4.75;4.20;;;20.10;35.80;;;;;;20489;6847;279275;-77
2023/05/30 01:30:38;;;;;;;5.30;4.37;;;20.10;35.80;;;;;;20496;6847;308807;-77
2023/05/30 01:33:08;;;;;;;4.43;3.90;;;19.90;36.60;;;;;;20697;6847;117209;-78
2023/05/30 01:35:34;;;;;;;4.50;4.10;;;19.80;36.20;;;;;;20480;6847;306479;-78
2023/05/30 01:37:59;;;;;;;4.50;4.10;;;19.90;36.30;;;;;;20700;6847;117711;-77
2023/05/30 01:40:25;;;;;;;4.83;4.40;;;19.60;36.30;;;;;;20495;6847;308282;-77
2023/05/30 01:42:50;;;;;;;4.23;3.93;;;19.60;36.70;;;;;;20482;6847;301966;-77
2023/05/30 01:45:16;;;;;;;4.13;3.83;;;19.80;36.40;;;;;;20681;6847;124313;-77
2023/05/30 01:47:58;;;;;;;4.47;4.03;;;19.60;36.60;;;;;;20454;6847;278353;-77
2023/05/30 01:50:25;;;;;;;4.87;4.40;;;19.60;36.80;;;;;;20485;6847;309415;-78
2023/05/30 01:52:51;;;;;;;4.97;4.47;;;19.80;36.40;;;;;;20474;6847;331520;-77
2023/05/30 01:55:16;;;;;;;5.05;4.57;;;19.90;36.30;;;;;;20471;6847;307404;-76
2023/05/30 01:57:46;;;;;;;5.07;4.53;;;20.00;36.40;;;;;;20686;6847;124055;-76
2023/05/30 02:00:11;;;;;;;4.97;3.60;;;19.80;36.60;;;;;;20703;6847;117285;-76
2023/05/30 02:02:36;;;;;;;4.53;4.13;;;19.30;37.00;;;;;;20704;6847;117070;-76
2023/05/30 02:05:02;;;;;;;5.40;4.50;;;19.00;37.40;;;;;;20494;6847;283998;-76
2023/05/30 02:07:28;;;;;;;4.50;4.10;;;19.10;37.50;;;;;;20698;6847;117829;-76
2023/05/30 02:09:53;;;;;;;4.70;4.20;;;19.00;37.50;;;;;;20449;6847;308889;-76
2023/05/30 02:12:19;;;;;;;3.70;3.40;;;19.20;37.70;;;;;;20697;6847;120351;-78
2023/05/30 02:14:44;;;;;;;5.00;4.60;;;19.10;37.60;;;;;;20490;6846;307801;-76
2023/05/30 02:17:10;;;;;;;5.72;4.70;;;19.20;37.70;;;;;;20482;6847;313199;-77
2023/05/30 02:19:35;;;;;;;4.90;4.50;;;19.40;37.30;;;;;;20474;6847;291910;-76
2023/05/30 02:22:01;;;;;;;4.70;4.30;;;19.60;37.10;;;;;;20710;6847;117283;-76
2023/05/30 02:24:27;;;;;;;4.70;4.40;;;19.30;37.50;;;;;;20495;6847;278004;-76
2023/05/30 02:26:53;;;;;;;4.33;3.93;;;19.40;37.60;;;;;;20710;6847;117170;-76
2023/05/30 02:29:18;;;;;;;4.73;4.33;;;19.10;37.60;;;;;;20493;6847;312465;-77
2023/05/30 02:31:44;;;;;;;4.90;4.50;;;19.20;37.70;;;;;;20475;6847;312521;-76
2023/05/30 02:34:10;;;;;;;4.63;4.23;;;19.30;37.50;;;;;;20475;6847;338563;-76
2023/05/30 02:36:38;;;;;;;4.43;4.10;;;19.50;37.50;;;;;;20703;6847;118280;-76
2023/05/30 02:39:04;;;;;;;5.80;4.35;;;19.20;37.50;;;;;;20475;6847;278799;-76
2023/05/30 02:41:29;;;;;;;6.47;4.55;;;19.20;37.90;;;;;;20487;6847;284511;-77
2023/05/30 02:43:55;;;;;;;4.80;4.40;;;19.40;37.80;;;;;;20676;6847;123224;-76
2023/05/30 02:46:20;;;;;;;5.28;4.78;;;19.20;37.90;;;;;;20494;6847;337909;-76
2023/05/30 02:48:46;;;;;;;5.17;3.90;;;19.10;38.20;;;;;;20700;6847;118225;-77
2023/05/30 02:51:12;;;;;;;4.33;4.00;;;18.90;38.30;;;;;;20708;6847;119749;-76
2023/05/30 02:53:37;;;;;;;4.47;4.10;;;18.70;38.80;;;;;;20682;6847;118325;-76
2023/05/30 02:56:03;;;;;;;6.15;3.90;;;18.40;38.90;;;;;;20709;6847;117356;-76
2023/05/30 02:58:29;;;;;;;5.97;4.30;;;18.20;39.20;;;;;;20489;6847;307781;-76
2023/05/30 03:00:55;;;;;;;5.10;4.60;;;18.70;39.10;;;;;;20489;6847;309030;-76
2023/05/30 03:03:21;;;;;;;4.40;4.00;;;18.70;39.10;;;;;;20705;6847;117122;-76
2023/05/30 03:05:49;;;;;;;4.77;3.93;;;18.60;39.10;;;;;;20666;6847;118069;-76
2023/05/30 03:08:12;;;;;;;5.67;4.50;;;18.40;39.40;;;;;;20486;6847;277754;-76
2023/05/30 03:10:37;;;;;;;5.07;4.67;;;18.50;39.40;;;;;;20498;6847;278895;-76
2023/05/30 03:13:03;;;;;;;5.47;4.80;;;18.70;39.70;;;;;;20487;6847;308581;-76
2023/05/30 03:15:30;;;;;;;4.23;3.93;;;19.00;38.80;;;;;;20711;6847;117111;-76
2023/05/30 03:17:55;;;;;;;4.27;3.93;;;18.40;39.10;;;;;;20683;6847;119524;-76
2023/05/30 03:20:21;;;;;;;4.95;4.55;;;18.40;39.20;;;;;;20492;6847;279191;-76
2023/05/30 03:22:46;;;;;;;5.70;4.40;;;18.80;39.40;;;;;;20481;6847;307687;-76
2023/05/30 03:25:12;;;;;;;5.10;4.60;;;18.80;39.40;;;;;;20495;6846;298315;-76
2023/05/30 03:27:38;;;;;;;4.90;4.40;;;19.00;39.00;;;;;;20690;6846;117109;-77
2023/05/30 03:30:03;;;;;;;4.77;4.37;;;18.80;39.20;;;;;;20488;6847;311645;-76
2023/05/30 03:32:29;;;;;;;5.03;4.50;;;18.80;39.20;;;;;;20701;6847;119235;-77
2023/05/30 03:34:54;;;;;;;5.10;4.70;;;18.70;39.40;;;;;;20492;6847;278485;-76
2023/05/30 03:37:21;;;;;;;5.40;4.90;;;18.70;39.70;;;;;;20492;6847;307700;-76
2023/05/30 03:39:47;;;;;;;4.80;4.50;;;19.00;39.40;;;;;;20473;6847;312341;-76
2023/05/30 03:42:12;;;;;;;5.32;4.82;;;19.10;39.20;;;;;;20489;6847;307700;-76
2023/05/30 03:44:39;;;;;;;4.70;4.30;;;19.30;39.30;;;;;;20702;6847;117879;-76
2023/05/30 03:47:05;;;;;;;4.23;3.83;;;18.70;40.40;;;;;;20700;6847;117398;-77
2023/05/30 03:49:31;;;;;;;6.20;4.30;;;18.70;39.70;;;;;;20707;6847;123066;-76
2023/05/30 03:51:57;;;;;;;5.22;4.70;;;18.40;40.10;;;;;;20465;6847;277978;-76
2023/05/30 03:54:23;;;;;;;6.20;4.87;;;18.90;40.10;;;;;;20494;6847;290465;-76
2023/05/30 03:56:48;;;;;;;4.50;4.10;;;18.80;39.70;;;;;;20709;6847;117463;-77
2023/05/30 03:59:15;;;;;;;5.70;4.50;;;18.70;39.70;;;;;;20487;6847;341746;-76
2023/05/30 04:01:40;;;;;;;5.10;4.70;;;18.80;39.60;;;;;;20473;6847;312368;-76
2023/05/30 04:04:05;;;;;;;4.45;4.15;;;19.00;39.40;;;;;;20707;6847;118377;-77
2023/05/30 04:06:31;;;;;;;5.20;4.60;;;18.80;39.80;;;;;;20491;6847;282587;-76
2023/05/30 04:08:56;;;;;;;5.30;4.80;;;18.80;39.70;;;;;;20497;6847;337304;-77
2023/05/30 04:11:22;;;;;;;4.70;4.20;;;19.00;39.30;;;;;;20701;6847;123356;-77
2023/05/30 04:13:47;;;;;;;5.37;4.33;;;18.80;39.70;;;;;;20695;6847;123698;-77
2023/05/30 04:16:13;;;;;;;5.57;4.10;;;18.50;40.20;;;;;;20703;6847;117341;-76
2023/05/30 04:18:43;;;;;;;5.40;4.83;;;18.30;40.60;;;;;;20498;6847;279138;-77
2023/05/30 04:21:04;;;;;;;5.25;4.75;;;18.40;40.70;;;;;;20474;6847;334999;-79
2023/05/30 04:23:31;;;;;;;5.37;4.90;;;18.80;40.20;;;;;;20486;6847;307775;-82
2023/05/30 04:25:57;;;;;;;6.70;5.00;;;19.00;39.70;;;;;;20688;6847;117728;-76
2023/05/30 04:28:22;;;;;;;4.28;3.97;;;18.90;39.80;;;;;;20701;6847;116389;-79
2023/05/30 04:30:49;;;;;;;5.67;4.90;;;18.70;41.30;;;;;;20495;6847;296173;-83
2023/05/30 04:33:14;;;;;;;5.20;4.53;;;18.70;40.60;;;;;;20487;6847;308977;-79
2023/05/30 04:35:41;;;;;;;5.25;4.72;;;19.00;40.30;;;;;;20468;6847;308658;-81
2023/05/30 04:38:05;;;;;;;5.50;5.00;;;19.20;39.90;;;;;;20498;6846;312302;-77
2023/05/30 04:40:32;;;;;;;5.68;5.10;;;19.50;39.60;;;;;;20493;6847;308525;-78
2023/05/30 04:42:56;;;;;;;4.70;4.40;;;19.60;39.70;;;;;;20683;6847;117205;-80
2023/05/30 04:45:28;;;;;;;7.90;4.37;;;19.40;39.40;;;;;;20701;6847;117618;-80
2023/05/30 04:47:47;;;;;;;8.10;4.53;;;19.00;39.90;;;;;;20670;6847;117592;-81
2023/05/30 04:50:14;;;;;;;4.70;4.40;;;18.70;40.40;;;;;;20702;6847;117504;-77
2023/05/30 04:52:38;;;;;;;5.37;4.57;;;18.60;40.70;;;;;;20698;6847;117088;-79
2023/05/30 04:55:05;;;;;;;96.37;70.70;;;18.50;41.10;;;;;;20708;6847;123259;-76
2023/05/30 04:57:30;;;;;;;7.53;6.93;;;18.40;41.30;;;;;;20698;6847;123761;-78
2023/05/30 04:59:55;;;;;;;4.97;4.37;;;18.40;41.50;;;;;;20688;6847;117651;-77
2023/05/30 05:02:22;;;;;;;5.27;4.77;;;18.40;41.50;;;;;;20487;6847;308023;-80
2023/05/30 05:04:48;;;;;;;5.60;4.07;;;18.70;41.30;;;;;;20702;6847;117205;-80
2023/05/30 05:07:13;;;;;;;4.87;4.17;;;18.80;41.60;;;;;;20698;6847;117529;-77
2023/05/30 05:09:39;;;;;;;5.83;4.90;;;18.80;42.30;;;;;;20462;6847;307856;-77
2023/05/30 05:12:04;;;;;;;6.23;5.23;;;19.00;43.40;;;;;;20495;6847;308271;-76
2023/05/30 05:14:30;;;;;;;5.23;4.73;;;19.50;42.60;;;;;;20692;6847;118098;-76
2023/05/30 05:16:57;;;;;;;5.43;4.90;;;19.50;42.30;;;;;;20482;6847;308223;-76
2023/05/30 05:19:21;;;;;;;5.62;5.12;;;19.70;42.80;;;;;;20484;6847;338865;-76
2023/05/30 05:21:48;;;;;;;5.70;5.20;;;20.00;42.50;;;;;;20457;6847;306391;-77
2023/05/30 05:24:14;;;;;;;7.67;5.63;;;20.20;41.80;;;;;;20705;6847;117345;-77
2023/05/30 05:26:40;;;;;;;5.03;4.63;;;19.80;42.60;;;;;;20695;6847;117158;-77
2023/05/30 05:29:05;;;;;;;6.05;5.45;;;19.80;41.90;;;;;;20490;6847;331634;-76
2023/05/30 05:31:33;;;;;;;5.80;5.30;;;19.90;41.30;;;;;;20490;6847;312828;-77
2023/05/30 05:33:57;;;;;;;5.43;4.83;;;20.10;40.60;;;;;;20671;6847;117643;-76
2023/05/30 05:36:22;;;;;;;5.97;4.60;;;20.10;40.80;;;;;;20699;6847;118302;-76
2023/05/30 05:38:48;;;;;;;6.05;5.10;;;19.80;41.00;;;;;;20503;6847;308204;-76
2023/05/30 05:41:13;;;;;;;5.20;4.70;;;19.90;40.80;;;;;;20682;6847;117145;-76
2023/05/30 05:43:40;;;;;;;5.70;5.18;;;19.90;40.80;;;;;;20473;6847;278700;-76
2023/05/30 05:46:06;;;;;;;5.20;4.70;;;20.10;41.00;;;;;;20695;6847;117409;-77
2023/05/30 05:48:33;;;;;;;4.73;4.43;;;20.10;41.00;;;;;;20701;6846;117704;-76
2023/05/30 05:50:59;;;;;;;7.75;6.80;;;19.90;41.30;;;;;;20483;6847;338594;-76
2023/05/30 05:53:26;;;;;;;8.97;6.57;;;20.10;40.80;;;;;;20492;6847;279420;-76
2023/05/30 05:55:52;;;;;;;7.30;6.60;;;20.50;40.00;;;;;;20474;6847;401607;-76
2023/05/30 05:58:17;;;;;;;8.03;6.37;;;20.80;39.30;;;;;;20704;6847;117266;-75
2023/05/30 06:00:42;;;;;;;8.80;6.20;;;20.70;39.60;;;;;;20713;6847;117684;-76
2023/05/30 06:03:10;;;;;;;7.50;6.17;;;20.80;40.30;;;;;;20485;6847;311893;-76
2023/05/30 06:05:36;;;;;;;6.87;5.82;;;21.20;39.90;;;;;;20473;6847;307337;-76
2023/05/30 06:08:02;;;;;;;6.30;5.40;;;21.10;39.80;;;;;;20708;6847;117613;-76
2023/05/30 06:10:28;;;;;;;5.90;5.40;;;21.20;39.90;;;;;;20704;6847;116727;-76
2023/05/30 06:12:55;;;;;;;5.60;5.20;;;21.20;39.80;;;;;;20499;6847;308201;-77
2023/05/30 06:15:19;;;;;;;6.67;5.03;;;21.50;38.80;;;;;;20488;6847;307324;-76
2023/05/30 06:17:45;;;;;;;5.63;5.17;;;21.90;38.30;;;;;;20470;6847;345636;-77
2023/05/30 06:20:12;;;;;;;5.55;5.00;;;22.30;37.50;;;;;;20494;6847;309068;-76
2023/05/30 06:22:39;;;;;;;5.73;4.53;;;22.60;37.10;;;;;;20726;6847;67844;-77
2023/05/30 06:25:05;;;;;;;5.20;4.50;;;22.60;37.30;;;;;;20638;6847;77992;-76
2023/05/30 06:27:30;;;;;;;4.90;4.50;;;22.40;37.20;;;;;;20697;6847;117009;-77
2023/05/30 06:29:55;;;;;;;18.47;15.83;;;22.20;37.40;;;;;;20675;6847;117199;-76
2023/05/30 06:32:21;;;;;;;7.83;7.13;;;22.00;37.60;;;;;;20709;6847;117581;-76
2023/05/30 06:34:47;;;;;;;5.10;4.70;;;21.80;37.80;;;;;;20699;6847;117314;-76
2023/05/30 06:37:13;;;;;;;5.47;4.97;;;21.80;37.80;;;;;;20497;6847;312056;-76
2023/05/30 06:39:38;;;;;;;5.27;4.83;;;22.10;37.60;;;;;;20685;6847;117358;-77
2023/05/30 06:42:04;;;;;;;4.90;4.50;;;22.20;37.70;;;;;;20712;6847;119887;-76
2023/05/30 06:44:30;;;;;;;5.27;4.77;;;22.20;37.90;;;;;;20705;6847;117625;-77
2023/05/30 06:46:56;;;;;;;5.57;5.00;;;22.20;38.10;;;;;;20693;6847;117784;-77
2023/05/30 06:49:21;;;;;;;5.40;4.90;;;22.20;38.10;;;;;;20505;6847;278327;-77
2023/05/30 06:51:46;;;;;;;4.80;4.40;;;22.50;37.10;;;;;;20688;6847;117240;-77
2023/05/30 06:54:13;;;;;;;6.50;5.00;;;22.80;36.60;;;;;;20496;6847;312631;-76
2023/05/30 06:56:38;;;;;;;5.37;4.90;;;22.80;36.60;;;;;;20697;6847;117685;-76
2023/05/30 06:59:05;;;;;;;4.63;4.23;;;22.90;37.10;;;;;;20707;6847;117164;-79
2023/05/30 07:01:30;;;;;;;5.75;5.15;;;22.90;37.10;;;;;;20498;6846;308702;-77
2023/05/30 07:03:56;;;;;;;4.93;4.30;;;23.20;35.90;;;;;;20474;6847;307705;-76
2023/05/30 07:06:21;;;;;;;6.10;4.90;;;23.60;34.90;;;;;;20712;6847;117214;-77
2023/05/30 07:08:47;;;;;;;6.00;5.07;;;23.50;34.80;;;;;;20505;6847;290468;-76
2023/05/30 07:11:12;;;;;;;4.83;4.30;;;23.60;34.50;;;;;;20713;6847;116774;-76
2023/05/30 07:13:40;;;;;;;6.23;4.97;;;23.50;35.20;;;;;;20485;6847;307729;-77
2023/05/30 07:16:05;;;;;;;4.43;4.03;;;23.60;34.80;;;;;;20706;6847;117750;-76
2023/05/30 07:18:31;;;;;;;5.83;4.63;;;23.80;34.40;;;;;;20498;6847;307798;-77
2023/05/30 07:20:57;;;;;;;4.70;4.30;;;23.80;34.40;;;;;;20711;6847;117128;-76
2023/05/30 07:23:22;;;;;;;5.22;4.30;;;23.80;34.60;;;;;;20706;6847;118873;-77
2023/05/30 07:25:49;;;;;;;4.33;4.03;;;23.70;34.80;;;;;;20691;6847;117821;-77
2023/05/30 07:28:15;;;;;;;7.23;4.63;;;23.60;35.00;;;;;;20494;6847;308675;-77
2023/05/30 07:30:41;;;;;;;5.23;4.60;;;23.80;35.10;;;;;;20498;6847;312151;-77
2023/05/30 07:33:06;;;;;;;5.23;4.50;;;24.10;34.20;;;;;;20710;6847;117974;-76
2023/05/30 07:35:32;;;;;;;4.47;4.10;;;24.10;34.70;;;;;;20706;6847;122480;-76
2023/05/30 07:37:58;;;;;;;5.13;4.73;;;24.10;34.70;;;;;;20491;6847;308452;-77
2023/05/30 07:40:24;;;;;;;4.95;4.55;;;24.30;34.10;;;;;;20506;6847;282643;-76
2023/05/30 07:42:49;;;;;;;5.30;4.80;;;24.60;33.50;;;;;;20507;6847;307886;-77
2023/05/30 07:45:18;;;;;;;5.47;4.17;;;24.90;33.00;;;;;;20710;6847;119844;-77
2023/05/30 07:47:42;;;;;;;9.43;4.60;;;24.60;33.40;;;;;;20687;6847;117482;-76
2023/05/30 07:50:08;;;;;;;5.17;4.67;;;24.60;33.40;;;;;;20710;6847;123424;-79
2023/05/30 07:52:35;;;;;;;6.47;5.00;;;24.40;33.40;;;;;;20495;6847;278673;-76
2023/05/30 07:55:00;;;;;;;5.78;4.97;;;24.40;33.40;;;;;;20500;6847;308161;-77
2023/05/30 07:57:26;;;;;;;5.50;5.00;;;24.70;33.60;;;;;;20506;6847;280565;-77
2023/05/30 07:59:51;;;;;;;6.60;5.00;;;25.00;33.20;;;;;;20476;6847;351803;-77
2023/05/30 08:02:19;;;;;;;6.07;4.93;;;25.40;32.60;;;;;;20500;6847;307807;-76
2023/05/30 08:04:44;;;;;;;5.30;4.90;;;25.30;32.50;;;;;;20478;6847;336829;-75
2023/05/30 08:07:11;;;;;;;4.90;4.53;;;25.50;32.30;;;;;;20698;6847;117574;-77
2023/05/30 08:09:36;;;;;;;5.13;4.77;;;25.30;32.70;;;;;;20696;6847;118093;-76
2023/05/30 08:12:02;;;;;;;4.57;4.17;;;25.10;33.20;;;;;;20729;6846;67315;-77
2023/05/30 08:14:27;;;;;;;4.73;4.30;;;24.90;33.40;;;;;;20707;6847;119647;-76
2023/05/30 08:16:53;;;;;;;5.47;4.50;;;24.70;33.50;;;;;;20704;6847;117806;-77
2023/05/30 08:19:21;;;;;;;5.40;4.90;;;24.70;33.80;;;;;;20498;6847;308684;-76
2023/05/30 08:21:44;;;;;;;6.73;4.73;;;25.10;33.50;;;;;;20689;6847;120090;-77
2023/05/30 08:24:12;;;;;;;5.57;5.00;;;25.20;33.30;;;;;;20494;6847;311792;-77
2023/05/30 08:26:35;;;;;;;4.93;4.40;;;25.50;32.50;;;;;;20709;6847;118237;-76
2023/05/30 08:29:03;;;;;;;4.50;4.18;;;25.60;32.60;;;;;;20707;6847;117285;-77
2023/05/30 08:31:27;;;;;;;5.17;4.37;;;25.40;32.50;;;;;;20710;6847;117146;-76
2023/05/30 08:33:52;;;;;;;5.57;5.15;;;25.40;32.90;;;;;;20484;6847;308091;-76
2023/05/30 08:36:21;;;;;;;5.50;4.97;;;25.60;31.70;;;;;;20508;6847;336961;-77
2023/05/30 08:38:43;;;;;;;4.90;4.50;;;25.80;31.10;;;;;;20713;6847;117102;-76
2023/05/30 08:41:08;;;;;;;5.73;4.63;;;25.70;31.20;;;;;;20707;6847;117185;-78
2023/05/30 08:43:34;;;;;;;5.07;4.67;;;25.40;31.70;;;;;;20689;6847;117954;-77
2023/05/30 08:46:01;;;;;;;4.70;4.30;;;25.20;32.20;;;;;;20710;6847;117728;-76
2023/05/30 08:48:26;;;;;;;5.57;5.07;;;25.00;32.50;;;;;;20482;6847;337386;-77
2023/05/30 08:50:52;;;;;;;5.37;4.87;;;25.30;32.40;;;;;;20704;6847;117416;-77
2023/05/30 08:53:17;;;;;;;5.67;4.37;;;25.40;32.30;;;;;;20699;6847;123582;-77
2023/05/30 08:55:44;;;;;;;5.90;5.30;;;25.60;31.90;;;;;;20457;6847;308659;-80
2023/05/30 08:58:09;;;;;;;5.80;4.90;;;25.60;31.90;;;;;;20476;6847;340843;-76
2023/05/30 09:00:36;;;;;;;4.80;4.30;;;26.00;32.10;;;;;;20700;6847;117179;-76
2023/05/30 09:03:01;;;;;;;5.03;4.63;;;26.00;32.10;;;;;;20711;6847;117161;-77
2023/05/30 09:05:27;;;;;;;5.07;4.33;;;25.80;32.20;;;;;;20694;6847;117576;-77
2023/05/30 09:07:53;;;;;;;4.60;4.23;;;25.70;32.40;;;;;;20692;6847;117885;-76
2023/05/30 09:10:18;;;;;;;5.67;4.70;;;25.60;32.60;;;;;;20505;6847;306842;-77
2023/05/30 09:12:43;;;;;;;7.30;4.73;;;25.90;32.40;;;;;;20706;6847;118059;-77
2023/05/30 09:15:11;;;;;;;5.57;5.07;;;26.20;31.00;;;;;;20500;6847;298612;-77
2023/05/30 09:17:37;;;;;;;5.87;5.37;;;26.20;31.00;;;;;;20467;6847;308154;-76
2023/05/30 09:20:02;;;;;;;5.70;5.00;;;26.60;31.00;;;;;;20710;6847;121803;-79
2023/05/30 09:22:28;;;;;;;5.70;5.20;;;26.50;30.90;;;;;;20495;6847;281967;-76
2023/05/30 09:25:00;;;;;;;7.50;4.80;;;26.60;31.00;;;;;;20503;6846;311935;-78
2023/05/30 09:27:26;;;;;;;5.23;4.77;;;26.90;30.70;;;;;;20493;6847;308138;-76
2023/05/30 09:29:51;;;;;;;5.10;4.60;;;27.00;30.30;;;;;;20680;6847;119861;-77
2023/05/30 09:32:17;;;;;;;5.45;4.95;;;26.90;30.30;;;;;;20497;6847;308603;-77
2023/05/30 09:34:53;;;;;;;5.93;4.23;;;26.90;30.30;;;;;;20713;6847;117200;-77
2023/05/30 09:37:18;;;;;;;7.00;4.70;;;26.80;30.30;;;;;;20713;6847;119610;-77
2023/05/30 09:39:44;;;;;;;4.40;4.00;;;26.50;30.80;;;;;;20701;6847;121628;-77
2023/05/30 09:42:09;;;;;;;4.47;4.17;;;26.30;31.70;;;;;;20633;6847;117854;-77
2023/05/30 09:44:35;;;;;;;6.83;4.97;;;26.30;31.40;;;;;;20717;6847;120017;-77
2023/05/30 09:47:00;;;;;;;5.97;5.30;;;26.30;31.70;;;;;;20497;6847;311940;-76
2023/05/30 09:49:26;;;;;;;4.68;4.07;;;26.60;31.10;;;;;;20719;6847;117615;-77
2023/05/30 09:51:51;;;;;;;5.40;4.90;;;26.70;31.10;;;;;;20489;6847;401838;-79
2023/05/30 09:54:17;;;;;;;4.37;4.07;;;27.00;30.30;;;;;;20710;6847;121358;-77
2023/05/30 09:56:43;;;;;;;4.43;4.13;;;26.90;30.70;;;;;;20717;6847;117850;-77
2023/05/30 09:59:13;;;;;;;4.93;4.40;;;26.90;30.70;;;;;;20715;6847;117696;-77
2023/05/30 10:01:37;;;;;;;5.80;4.75;;;26.90;31.10;;;;;;20489;6847;336895;-77
2023/05/30 10:04:16;;;;;;;4.77;4.30;;;27.10;30.10;;;;;;20713;6847;72183;-76
2023/05/30 10:06:41;;;;;;;7.67;4.27;;;27.20;30.40;;;;;;20719;6847;123220;-76
2023/05/30 10:09:07;;;;;;;5.37;4.70;;;27.10;30.60;;;;;;20507;6847;308181;-77
2023/05/30 10:11:32;;;;;;;4.97;4.33;;;27.30;31.40;;;;;;20715;6847;117293;-77
2023/05/30 10:13:58;;;;;;;5.97;4.37;;;27.40;30.80;;;;;;20718;6847;116396;-77
2023/05/30 10:16:23;;;;;;;7.77;4.77;;;27.40;30.50;;;;;;20514;6847;307293;-77
2023/05/30 10:18:49;;;;;;;5.37;4.87;;;27.60;30.00;;;;;;20726;6847;117143;-77
2023/05/30 10:21:15;;;;;;;5.20;4.70;;;27.50;30.00;;;;;;20727;6847;117101;-77
2023/05/30 10:23:41;;;;;;;5.27;4.87;;;27.50;30.00;;;;;;20481;6847;276822;-77
2023/05/30 10:26:07;;;;;;;5.57;5.15;;;28.00;30.50;;;;;;20515;6847;281865;-77
2023/05/30 10:28:32;;;;;;;5.85;4.72;;;28.00;29.90;;;;;;20498;6847;308692;-77
2023/05/30 10:30:59;;;;;;;5.00;4.60;;;28.50;28.80;;;;;;20489;6847;280768;-77
2023/05/30 10:33:24;;;;;;;6.47;4.47;;;28.40;28.80;;;;;;20720;6847;117575;-77
2023/05/30 10:35:51;;;;;;;4.90;4.40;;;28.40;29.00;;;;;;20693;6846;117078;-77
2023/05/30 10:38:17;;;;;;;5.10;4.50;;;28.20;29.60;;;;;;20512;6847;278346;-77
2023/05/30 10:40:53;;;;;;;4.23;3.93;;;28.20;29.60;;;;;;20722;6847;117131;-77
2023/05/30 10:43:24;;;;;;;4.80;4.40;;;28.10;29.50;;;;;;20483;6847;312727;-77
2023/05/30 10:46:19;;;;;;;5.23;4.70;;;28.30;30.40;;;;;;20701;6847;123055;-77
2023/05/30 10:48:58;;;;;;;5.03;4.57;;;28.30;29.70;;;;;;20722;6847;121915;-77
2023/05/30 10:51:24;;;;;;;4.43;4.03;;;28.20;29.50;;;;;;20722;6847;116435;-77
2023/05/30 10:53:49;;;;;;;6.50;4.18;;;28.10;29.90;;;;;;20701;6847;119927;-76
2023/05/30 10:56:38;;;;;;;5.00;4.60;;;28.00;29.80;;;;;;20505;6847;307308;-77
2023/05/30 10:59:03;;;;;;;4.70;4.30;;;28.10;29.00;;;;;;20497;6847;307866;-76
2023/05/30 11:01:32;;;;;;;5.40;4.47;;;28.40;28.90;;;;;;20691;6847;117689;-77
2023/05/30 11:04:02;;;;;;;4.87;4.47;;;28.10;29.30;;;;;;20715;6847;117833;-77
2023/05/30 11:06:27;;;;;;;5.20;4.80;;;28.10;29.30;;;;;;20500;6847;344665;-79
2023/05/30 11:08:53;;;;;;;5.63;4.70;;;28.30;29.30;;;;;;20498;6847;282913;-77
2023/05/30 11:11:19;;;;;;;5.00;4.50;;;28.30;29.30;;;;;;20687;6847;120350;-77
2023/05/30 11:13:48;;;;;;;4.50;3.87;;;28.30;29.10;;;;;;20694;6847;119730;-77
2023/05/30 11:16:23;;;;;;;6.60;4.03;;;28.10;29.60;;;;;;20683;6847;118441;-76
2023/05/30 11:18:53;;;;;;;4.53;4.17;;;28.00;30.00;;;;;;20486;6847;308215;-76
2023/05/30 11:21:58;;;;;;;4.37;3.93;;;28.20;29.30;;;;;;20710;6847;123456;-76
2023/05/30 11:24:30;;;;;;;5.10;4.60;;;28.30;29.20;;;;;;20489;6847;278795;-76
2023/05/30 11:26:59;;;;;;;4.60;4.20;;;28.40;28.50;;;;;;20491;6847;308721;-76
2023/05/30 11:29:47;;;;;;;5.03;4.40;;;28.50;28.30;;;;;;20488;6847;341403;-77
2023/05/30 11:32:13;;;;;;;6.40;4.07;;;28.60;28.50;;;;;;20542;6847;117803;-77
2023/05/30 11:34:38;;;;;;;5.63;4.00;;;28.40;28.90;;;;;;20689;6847;117859;-77
2023/05/30 11:37:04;;;;;;;6.05;4.15;;;28.20;29.00;;;;;;20492;6847;312377;-77
2023/05/30 11:39:33;;;;;;;5.95;4.40;;;28.20;29.40;;;;;;20503;6847;277643;-79
2023/05/30 11:41:59;;;;;;;4.65;4.25;;;28.40;29.30;;;;;;20482;6847;341226;-77
2023/05/30 11:44:24;;;;;;;5.35;4.12;;;28.60;28.80;;;;;;20495;6847;278843;-77
2023/05/30 11:46:56;;;;;;;5.72;4.20;;;28.80;28.50;;;;;;20506;6846;279139;-76
2023/05/30 11:49:22;;;;;;;4.50;4.10;;;29.00;29.00;;;;;;20500;6847;123008;-76
2023/05/30 11:51:47;;;;;;;5.33;4.00;;;28.90;28.50;;;;;;20484;6847;308191;-76
2023/05/30 11:54:14;;;;;;;4.27;3.63;;;28.80;28.20;;;;;;20711;6847;117747;-76
2023/05/30 11:56:39;;;;;;;4.25;3.80;;;28.60;28.50;;;;;;20504;6847;284519;-77
2023/05/30 11:59:07;;;;;;;4.07;3.67;;;28.60;27.50;;;;;;20703;6847;117447;-76
2023/05/30 12:01:31;;;;;;;4.07;3.77;;;28.20;27.80;;;;;;20700;6847;117525;-85
2023/05/30 12:03:57;;;;;;;4.50;3.73;;;28.20;27.80;;;;;;20694;6847;117482;-76
2023/05/30 12:06:23;;;;;;;4.23;3.83;;;28.00;28.10;;;;;;20707;6847;117459;-76
2023/05/30 12:08:50;;;;;;;5.37;4.18;;;27.90;28.50;;;;;;20497;6847;308514;-76
2023/05/30 12:11:15;;;;;;;4.23;3.67;;;28.00;28.00;;;;;;20484;6847;309194;-76
2023/05/30 12:13:40;;;;;;;4.13;3.80;;;28.20;29.00;;;;;;20684;6847;127799;-76
2023/05/30 12:16:07;;;;;;;4.30;3.70;;;28.20;28.40;;;;;;20491;6847;311816;-76
2023/05/30 12:18:33;;;;;;;6.07;4.00;;;28.20;27.40;;;;;;20488;6847;311914;-76
2023/05/30 12:21:03;;;;;;;5.63;3.90;;;28.40;27.10;;;;;;20705;6847;119817;-76
2023/05/30 12:23:27;;;;;;;4.20;3.90;;;28.30;27.50;;;;;;20470;6847;308227;-77
2023/05/30 12:25:55;;;;;;;4.13;3.80;;;28.30;27.80;;;;;;20691;6847;117906;-76
2023/05/30 12:28:18;;;;;;;4.75;4.35;;;28.30;27.80;;;;;;20487;6847;331224;-76
2023/05/30 12:30:43;;;;;;;4.97;4.03;;;28.30;27.80;;;;;;20712;6847;117283;-77
2023/05/30 12:33:15;;;;;;;3.97;3.67;;;28.30;28.20;;;;;;20717;6847;117210;-76